Reno, Ohio
Current Conditions -  °F | °C
As of 8:53 PM on Tuesday 25 Nov 2014 (Local Time) from KPKB Reporting Station
Clear Clear  
Wind Chill: 33°   Ceiling: Unl
Heat Index: 37°   Visibility: 10mi
Dew Point: 27°   Wind: 5mph
Humidity: 67%   Direction: 10°N
Pressure: 30.18"   Gusts: NA
Location:  39.37°N, 81.4°W
Report Text: KPKB 260153Z 01004KT 10SM CLR 03/M03 A3018 RMK AO2 SLP224 T00281028
Loading
Personal Weather Stations






























Interactive Weather Map New forecast layout! Learn more

10-Day Weather Forecast

Advertisements
Track Severe Weather on mobile